This is the latest recevied weather packets stored in our database for station/object E24CR-1. If no packets are shown the sender has not sent any weather packets the latest 10 day(s).
| Time | Temp. | Humidity | Pressure | Rain* | Wind** | Luminosity | Snow |
|---|---|---|---|---|---|---|---|
| 1777772031 | 31.11° C | 44% | 953 hPa | - | - | 0 W/m² | - |
| 1777771406 | 30.56° C | 44% | 952 hPa | - | - | 0 W/m² | - |
| 1777770783 | 29.44° C | 47% | 952 hPa | - | - | 0 W/m² | - |
| 1777770159 | 30° C | 46% | 952 hPa | - | - | 0 W/m² | - |
| 1777769534 | 29.44° C | 48% | 952 hPa | - | - | 0 W/m² | - |
| 1777768910 | 28.89° C | 46% | 952 hPa | - | - | 0 W/m² | - |
| 1777768286 | 29.44° C | 46% | 952 hPa | - | - | 0 W/m² | - |
| 1777767662 | 29.44° C | 46% | 952 hPa | - | - | 0 W/m² | - |
| 1777767037 | 28.33° C | 47% | 952 hPa | - | - | 0 W/m² | - |
| 1777766414 | 28.89° C | 48% | 952 hPa | - | - | 0 W/m² | - |
| 1777765789 | 28.33° C | 48% | 951 hPa | - | - | 0 W/m² | - |
| 1777765165 | 27.78° C | 49% | 951 hPa | - | - | 0 W/m² | - |
| 1777764541 | 27.78° C | 48% | 951 hPa | - | - | 0 W/m² | - |
| 1777763917 | 28.33° C | 47% | 951 hPa | - | - | 0 W/m² | - |
| 1777763293 | 28.33° C | 47% | 951 hPa | - | - | 0 W/m² | - |
| 1777762669 | 27.78° C | 48% | 951 hPa | - | - | 0 W/m² | - |
| 1777762044 | 28.33° C | 47% | 951 hPa | - | - | 0 W/m² | - |
| 1777761420 | 27.78° C | 49% | 951 hPa | - | - | 0 W/m² | - |
| 1777760796 | 27.78° C | 47% | 951 hPa | - | - | 0 W/m² | - |
| 1777760172 | 27.78° C | 48% | 951 hPa | - | - | 0 W/m² | - |
| 1777759548 | 27.78° C | 49% | 950 hPa | - | - | 0 W/m² | - |
| 1777758923 | 27.78° C | 49% | 950 hPa | - | - | 0 W/m² | - |
| 1777758287 | 27.78° C | 49% | 950 hPa | - | - | 0 W/m² | - |
| 1777757662 | 27.78° C | 49% | 950 hPa | - | - | 0 W/m² | - |
| 1777757037 | 28.33° C | 49% | 950 hPa | - | - | 0 W/m² | - |
* Rain since midnight (hover to see other rain measurements)
** Current wind speed in m/s (hover to see current wind gust speed)